sensor_id;sensor_type;location;lat;lon;timestamp;P1;durP1;ratioP1;P2;durP2;ratioP2
21175;SDS011;10746;50.178;8.186;2023-04-19T00:01:09;6.03;;;4.60;;
21175;SDS011;10746;50.178;8.186;2023-04-19T00:03:37;5.60;;;4.30;;
21175;SDS011;10746;50.178;8.186;2023-04-19T00:06:04;5.60;;;4.30;;
21175;SDS011;10746;50.178;8.186;2023-04-19T00:08:32;4.97;;;4.30;;
21175;SDS011;10746;50.178;8.186;2023-04-19T00:10:59;5.60;;;4.47;;
21175;SDS011;10746;50.178;8.186;2023-04-19T00:13:26;6.57;;;4.10;;
21175;SDS011;10746;50.178;8.186;2023-04-19T00:15:52;5.60;;;3.93;;
21175;SDS011;10746;50.178;8.186;2023-04-19T00:18:19;7.10;;;4.30;;
21175;SDS011;10746;50.178;8.186;2023-04-19T00:20:47;5.23;;;4.53;;
21175;SDS011;10746;50.178;8.186;2023-04-19T00:23:14;8.47;;;4.47;;
21175;SDS011;10746;50.178;8.186;2023-04-19T00:25:41;6.47;;;4.43;;
21175;SDS011;10746;50.178;8.186;2023-04-19T00:28:07;7.87;;;4.90;;
21175;SDS011;10746;50.178;8.186;2023-04-19T00:30:34;6.30;;;4.90;;
21175;SDS011;10746;50.178;8.186;2023-04-19T00:33:01;5.97;;;3.93;;
21175;SDS011;10746;50.178;8.186;2023-04-19T00:35:28;7.77;;;4.70;;
21175;SDS011;10746;50.178;8.186;2023-04-19T00:37:56;7.73;;;5.07;;
21175;SDS011;10746;50.178;8.186;2023-04-19T00:40:23;12.33;;;5.00;;
21175;SDS011;10746;50.178;8.186;2023-04-19T00:42:49;5.30;;;4.77;;
21175;SDS011;10746;50.178;8.186;2023-04-19T00:45:16;7.13;;;5.27;;
21175;SDS011;10746;50.178;8.186;2023-04-19T00:47:43;7.93;;;5.27;;
21175;SDS011;10746;50.178;8.186;2023-04-19T00:50:10;9.20;;;5.23;;
21175;SDS011;10746;50.178;8.186;2023-04-19T00:52:37;7.57;;;5.60;;
21175;SDS011;10746;50.178;8.186;2023-04-19T00:55:07;8.30;;;5.67;;
21175;SDS011;10746;50.178;8.186;2023-04-19T00:57:33;8.77;;;5.80;;
21175;SDS011;10746;50.178;8.186;2023-04-19T01:00:01;9.43;;;6.07;;
21175;SDS011;10746;50.178;8.186;2023-04-19T01:02:30;12.73;;;7.27;;
21175;SDS011;10746;50.178;8.186;2023-04-19T01:04:57;10.97;;;6.30;;
21175;SDS011;10746;50.178;8.186;2023-04-19T01:07:24;13.00;;;7.47;;
21175;SDS011;10746;50.178;8.186;2023-04-19T01:09:51;14.63;;;7.43;;
21175;SDS011;10746;50.178;8.186;2023-04-19T01:12:19;12.97;;;7.93;;
21175;SDS011;10746;50.178;8.186;2023-04-19T01:14:47;14.90;;;8.80;;
21175;SDS011;10746;50.178;8.186;2023-04-19T01:17:13;13.47;;;8.00;;
21175;SDS011;10746;50.178;8.186;2023-04-19T01:19:42;14.93;;;9.10;;
21175;SDS011;10746;50.178;8.186;2023-04-19T01:22:08;14.87;;;9.40;;
21175;SDS011;10746;50.178;8.186;2023-04-19T01:24:42;17.00;;;9.60;;
21175;SDS011;10746;50.178;8.186;2023-04-19T01:27:09;17.23;;;9.40;;
21175;SDS011;10746;50.178;8.186;2023-04-19T01:29:38;14.60;;;8.83;;
21175;SDS011;10746;50.178;8.186;2023-04-19T01:32:04;15.07;;;9.13;;
21175;SDS011;10746;50.178;8.186;2023-04-19T01:34:31;14.37;;;8.80;;
21175;SDS011;10746;50.178;8.186;2023-04-19T01:36:58;19.63;;;10.50;;
21175;SDS011;10746;50.178;8.186;2023-04-19T01:39:26;18.90;;;10.27;;
21175;SDS011;10746;50.178;8.186;2023-04-19T01:41:53;17.70;;;9.87;;
21175;SDS011;10746;50.178;8.186;2023-04-19T01:44:20;19.77;;;10.20;;
21175;SDS011;10746;50.178;8.186;2023-04-19T01:46:47;19.73;;;10.83;;
21175;SDS011;10746;50.178;8.186;2023-04-19T01:49:13;18.07;;;10.77;;
21175;SDS011;10746;50.178;8.186;2023-04-19T01:51:40;18.73;;;10.00;;
21175;SDS011;10746;50.178;8.186;2023-04-19T01:54:07;18.07;;;10.67;;
21175;SDS011;10746;50.178;8.186;2023-04-19T01:56:35;20.60;;;10.97;;
21175;SDS011;10746;50.178;8.186;2023-04-19T01:59:02;17.57;;;10.33;;
21175;SDS011;10746;50.178;8.186;2023-04-19T02:01:29;18.60;;;11.37;;
21175;SDS011;10746;50.178;8.186;2023-04-19T02:03:56;18.17;;;10.40;;
21175;SDS011;10746;50.178;8.186;2023-04-19T02:06:23;16.13;;;10.20;;
21175;SDS011;10746;50.178;8.186;2023-04-19T02:08:50;19.67;;;10.67;;
21175;SDS011;10746;50.178;8.186;2023-04-19T02:11:17;19.93;;;10.70;;
21175;SDS011;10746;50.178;8.186;2023-04-19T02:13:45;18.03;;;10.80;;
21175;SDS011;10746;50.178;8.186;2023-04-19T02:16:12;20.07;;;11.30;;
21175;SDS011;10746;50.178;8.186;2023-04-19T02:18:39;22.17;;;11.60;;
21175;SDS011;10746;50.178;8.186;2023-04-19T02:21:06;20.87;;;11.33;;
21175;SDS011;10746;50.178;8.186;2023-04-19T02:23:33;17.87;;;10.73;;
21175;SDS011;10746;50.178;8.186;2023-04-19T02:26:00;19.90;;;10.83;;
21175;SDS011;10746;50.178;8.186;2023-04-19T02:28:27;17.40;;;10.77;;
21175;SDS011;10746;50.178;8.186;2023-04-19T02:30:55;18.03;;;10.53;;
21175;SDS011;10746;50.178;8.186;2023-04-19T02:33:24;21.50;;;11.97;;
21175;SDS011;10746;50.178;8.186;2023-04-19T02:35:52;21.47;;;11.33;;
21175;SDS011;10746;50.178;8.186;2023-04-19T02:38:19;18.70;;;10.97;;
21175;SDS011;10746;50.178;8.186;2023-04-19T02:40:46;19.03;;;11.03;;
21175;SDS011;10746;50.178;8.186;2023-04-19T02:43:12;20.67;;;10.93;;
21175;SDS011;10746;50.178;8.186;2023-04-19T02:45:39;23.83;;;11.43;;
21175;SDS011;10746;50.178;8.186;2023-04-19T02:48:07;17.87;;;10.30;;
21175;SDS011;10746;50.178;8.186;2023-04-19T02:50:35;18.40;;;11.70;;
21175;SDS011;10746;50.178;8.186;2023-04-19T02:53:02;18.60;;;10.33;;
21175;SDS011;10746;50.178;8.186;2023-04-19T02:55:29;18.03;;;10.83;;
21175;SDS011;10746;50.178;8.186;2023-04-19T02:57:56;18.90;;;10.70;;
21175;SDS011;10746;50.178;8.186;2023-04-19T03:00:22;19.37;;;11.57;;
21175;SDS011;10746;50.178;8.186;2023-04-19T03:02:49;19.70;;;10.87;;
21175;SDS011;10746;50.178;8.186;2023-04-19T03:05:17;21.67;;;11.83;;
21175;SDS011;10746;50.178;8.186;2023-04-19T03:07:44;23.20;;;12.00;;
21175;SDS011;10746;50.178;8.186;2023-04-19T03:10:11;22.50;;;12.13;;
21175;SDS011;10746;50.178;8.186;2023-04-19T03:12:38;23.83;;;12.60;;
21175;SDS011;10746;50.178;8.186;2023-04-19T03:15:05;21.80;;;12.03;;
21175;SDS011;10746;50.178;8.186;2023-04-19T03:17:33;22.97;;;11.63;;
21175;SDS011;10746;50.178;8.186;2023-04-19T03:19:59;23.23;;;12.30;;
21175;SDS011;10746;50.178;8.186;2023-04-19T03:22:28;23.73;;;12.37;;
21175;SDS011;10746;50.178;8.186;2023-04-19T03:24:54;23.07;;;13.17;;
21175;SDS011;10746;50.178;8.186;2023-04-19T03:27:21;22.63;;;12.67;;
21175;SDS011;10746;50.178;8.186;2023-04-19T03:29:48;22.53;;;13.03;;
21175;SDS011;10746;50.178;8.186;2023-04-19T03:32:15;24.43;;;12.63;;
21175;SDS011;10746;50.178;8.186;2023-04-19T03:34:41;27.87;;;13.30;;
21175;SDS011;10746;50.178;8.186;2023-04-19T03:37:08;20.63;;;11.83;;
21175;SDS011;10746;50.178;8.186;2023-04-19T03:39:36;23.07;;;12.23;;
21175;SDS011;10746;50.178;8.186;2023-04-19T03:42:03;25.20;;;13.17;;
21175;SDS011;10746;50.178;8.186;2023-04-19T03:44:30;26.27;;;12.77;;
21175;SDS011;10746;50.178;8.186;2023-04-19T03:46:57;24.47;;;12.53;;
21175;SDS011;10746;50.178;8.186;2023-04-19T03:49:24;22.27;;;12.40;;
21175;SDS011;10746;50.178;8.186;2023-04-19T03:51:51;20.97;;;11.73;;
21175;SDS011;10746;50.178;8.186;2023-04-19T03:54:17;20.90;;;12.10;;
21175;SDS011;10746;50.178;8.186;2023-04-19T03:56:46;25.20;;;12.43;;
21175;SDS011;10746;50.178;8.186;2023-04-19T03:59:12;19.40;;;11.40;;
21175;SDS011;10746;50.178;8.186;2023-04-19T04:01:39;23.20;;;11.93;;
21175;SDS011;10746;50.178;8.186;2023-04-19T04:04:06;22.83;;;12.47;;
21175;SDS011;10746;50.178;8.186;2023-04-19T04:06:33;25.93;;;12.90;;
21175;SDS011;10746;50.178;8.186;2023-04-19T04:09:00;22.93;;;11.93;;
21175;SDS011;10746;50.178;8.186;2023-04-19T04:11:27;24.37;;;12.77;;
21175;SDS011;10746;50.178;8.186;2023-04-19T04:13:55;23.07;;;11.83;;
21175;SDS011;10746;50.178;8.186;2023-04-19T04:16:22;27.03;;;12.63;;
21175;SDS011;10746;50.178;8.186;2023-04-19T04:18:49;24.77;;;12.43;;
21175;SDS011;10746;50.178;8.186;2023-04-19T04:21:15;22.43;;;12.40;;
21175;SDS011;10746;50.178;8.186;2023-04-19T04:23:42;23.80;;;12.50;;
21175;SDS011;10746;50.178;8.186;2023-04-19T04:26:09;21.97;;;12.30;;
21175;SDS011;10746;50.178;8.186;2023-04-19T04:28:37;22.57;;;12.87;;
21175;SDS011;10746;50.178;8.186;2023-04-19T04:31:06;24.53;;;12.23;;
21175;SDS011;10746;50.178;8.186;2023-04-19T04:33:34;26.23;;;12.47;;
21175;SDS011;10746;50.178;8.186;2023-04-19T04:36:01;22.23;;;13.10;;
21175;SDS011;10746;50.178;8.186;2023-04-19T04:38:29;24.70;;;12.87;;
21175;SDS011;10746;50.178;8.186;2023-04-19T04:40:56;20.97;;;12.23;;
21175;SDS011;10746;50.178;8.186;2023-04-19T04:43:23;25.27;;;13.30;;
21175;SDS011;10746;50.178;8.186;2023-04-19T04:45:53;21.13;;;12.37;;
21175;SDS011;10746;50.178;8.186;2023-04-19T04:48:23;20.07;;;11.37;;
21175;SDS011;10746;50.178;8.186;2023-04-19T04:50:50;20.83;;;12.33;;
21175;SDS011;10746;50.178;8.186;2023-04-19T04:53:17;25.53;;;13.70;;
21175;SDS011;10746;50.178;8.186;2023-04-19T04:55:44;23.47;;;12.67;;
21175;SDS011;10746;50.178;8.186;2023-04-19T04:58:11;25.10;;;14.30;;
21175;SDS011;10746;50.178;8.186;2023-04-19T05:00:37;26.37;;;13.60;;
21175;SDS011;10746;50.178;8.186;2023-04-19T05:03:04;25.03;;;13.60;;
21175;SDS011;10746;50.178;8.186;2023-04-19T05:05:32;24.37;;;14.10;;
21175;SDS011;10746;50.178;8.186;2023-04-19T05:07:59;28.93;;;15.07;;
21175;SDS011;10746;50.178;8.186;2023-04-19T05:10:26;25.27;;;14.70;;
21175;SDS011;10746;50.178;8.186;2023-04-19T05:12:53;24.63;;;13.93;;
21175;SDS011;10746;50.178;8.186;2023-04-19T05:15:19;32.50;;;16.10;;
21175;SDS011;10746;50.178;8.186;2023-04-19T05:17:46;28.07;;;14.53;;
21175;SDS011;10746;50.178;8.186;2023-04-19T05:20:13;26.33;;;14.23;;
21175;SDS011;10746;50.178;8.186;2023-04-19T05:22:41;26.30;;;14.07;;
21175;SDS011;10746;50.178;8.186;2023-04-19T05:25:08;28.00;;;14.57;;
21175;SDS011;10746;50.178;8.186;2023-04-19T05:27:35;24.87;;;14.43;;
21175;SDS011;10746;50.178;8.186;2023-04-19T05:30:03;25.20;;;13.70;;
21175;SDS011;10746;50.178;8.186;2023-04-19T05:32:30;23.37;;;13.53;;
21175;SDS011;10746;50.178;8.186;2023-04-19T05:34:57;24.77;;;13.97;;
21175;SDS011;10746;50.178;8.186;2023-04-19T05:37:24;22.77;;;13.60;;
21175;SDS011;10746;50.178;8.186;2023-04-19T05:39:52;24.57;;;13.53;;
21175;SDS011;10746;50.178;8.186;2023-04-19T05:42:19;27.10;;;14.07;;
21175;SDS011;10746;50.178;8.186;2023-04-19T05:44:45;22.57;;;14.13;;
21175;SDS011;10746;50.178;8.186;2023-04-19T05:47:12;25.67;;;13.83;;
21175;SDS011;10746;50.178;8.186;2023-04-19T05:49:39;30.03;;;14.90;;
21175;SDS011;10746;50.178;8.186;2023-04-19T05:52:06;24.47;;;13.53;;
21175;SDS011;10746;50.178;8.186;2023-04-19T05:54:33;21.60;;;13.10;;
21175;SDS011;10746;50.178;8.186;2023-04-19T05:57:01;26.20;;;13.33;;
21175;SDS011;10746;50.178;8.186;2023-04-19T05:59:28;23.23;;;13.47;;
21175;SDS011;10746;50.178;8.186;2023-04-19T06:01:55;23.73;;;12.87;;
21175;SDS011;10746;50.178;8.186;2023-04-19T06:04:22;24.07;;;12.80;;
21175;SDS011;10746;50.178;8.186;2023-04-19T06:06:48;22.73;;;12.20;;
21175;SDS011;10746;50.178;8.186;2023-04-19T06:09:15;24.10;;;12.07;;
21175;SDS011;10746;50.178;8.186;2023-04-19T06:11:43;23.07;;;12.53;;
21175;SDS011;10746;50.178;8.186;2023-04-19T06:14:11;21.17;;;11.27;;
21175;SDS011;10746;50.178;8.186;2023-04-19T06:16:38;22.10;;;11.87;;
21175;SDS011;10746;50.178;8.186;2023-04-19T06:19:05;20.93;;;11.73;;
21175;SDS011;10746;50.178;8.186;2023-04-19T06:21:32;22.17;;;12.20;;
21175;SDS011;10746;50.178;8.186;2023-04-19T06:23:59;18.37;;;10.97;;
21175;SDS011;10746;50.178;8.186;2023-04-19T06:26:26;18.40;;;11.55;;
21175;SDS011;10746;50.178;8.186;2023-04-19T06:28:53;17.80;;;11.10;;
21175;SDS011;10746;50.178;8.186;2023-04-19T06:31:21;19.42;;;11.30;;
21175;SDS011;10746;50.178;8.186;2023-04-19T06:33:48;16.95;;;10.18;;
21175;SDS011;10746;50.178;8.186;2023-04-19T06:36:15;18.83;;;9.87;;
21175;SDS011;10746;50.178;8.186;2023-04-19T06:38:41;15.30;;;9.32;;
21175;SDS011;10746;50.178;8.186;2023-04-19T06:41:10;18.60;;;9.10;;
21175;SDS011;10746;50.178;8.186;2023-04-19T06:43:37;15.87;;;9.43;;
21175;SDS011;10746;50.178;8.186;2023-04-19T06:46:05;14.52;;;9.02;;
21175;SDS011;10746;50.178;8.186;2023-04-19T06:48:34;15.50;;;8.57;;
21175;SDS011;10746;50.178;8.186;2023-04-19T06:51:01;12.57;;;8.57;;
21175;SDS011;10746;50.178;8.186;2023-04-19T06:53:27;18.13;;;8.35;;
21175;SDS011;10746;50.178;8.186;2023-04-19T06:55:56;11.18;;;7.13;;
21175;SDS011;10746;50.178;8.186;2023-04-19T06:58:24;13.90;;;7.35;;
21175;SDS011;10746;50.178;8.186;2023-04-19T07:00:51;8.73;;;6.43;;
21175;SDS011;10746;50.178;8.186;2023-04-19T07:03:18;11.95;;;7.47;;
21175;SDS011;10746;50.178;8.186;2023-04-19T07:05:46;12.07;;;7.53;;
21175;SDS011;10746;50.178;8.186;2023-04-19T07:08:13;11.98;;;7.72;;
21175;SDS011;10746;50.178;8.186;2023-04-19T07:10:40;10.38;;;7.00;;
21175;SDS011;10746;50.178;8.186;2023-04-19T07:13:08;11.38;;;6.72;;
21175;SDS011;10746;50.178;8.186;2023-04-19T07:15:35;12.18;;;6.80;;
21175;SDS011;10746;50.178;8.186;2023-04-19T07:18:02;8.75;;;6.63;;
21175;SDS011;10746;50.178;8.186;2023-04-19T07:20:29;7.82;;;5.35;;
21175;SDS011;10746;50.178;8.186;2023-04-19T07:22:57;9.30;;;6.05;;
21175;SDS011;10746;50.178;8.186;2023-04-19T07:25:24;12.07;;;6.20;;
21175;SDS011;10746;50.178;8.186;2023-04-19T07:27:51;8.32;;;5.38;;
21175;SDS011;10746;50.178;8.186;2023-04-19T07:30:18;8.65;;;5.63;;
21175;SDS011;10746;50.178;8.186;2023-04-19T07:32:46;10.90;;;6.72;;
21175;SDS011;10746;50.178;8.186;2023-04-19T07:35:15;9.93;;;6.18;;
21175;SDS011;10746;50.178;8.186;2023-04-19T07:37:43;16.33;;;6.13;;
21175;SDS011;10746;50.178;8.186;2023-04-19T07:40:11;7.18;;;5.65;;
21175;SDS011;10746;50.178;8.186;2023-04-19T07:42:38;7.38;;;4.60;;
21175;SDS011;10746;50.178;8.186;2023-04-19T07:45:06;8.73;;;5.05;;
21175;SDS011;10746;50.178;8.186;2023-04-19T10:46:06;8.93;;;4.68;;
21175;SDS011;10746;50.178;8.186;2023-04-19T10:48:38;5.07;;;4.32;;
21175;SDS011;10746;50.178;8.186;2023-04-19T10:51:11;7.70;;;4.43;;
21175;SDS011;10746;50.178;8.186;2023-04-19T10:53:43;8.35;;;5.13;;
21175;SDS011;10746;50.178;8.186;2023-04-19T10:56:18;5.25;;;3.95;;
21175;SDS011;10746;50.178;8.186;2023-04-19T11:01:49;7.53;;;4.88;;
21175;SDS011;10746;50.178;8.186;2023-04-19T11:04:18;4.47;;;4.07;;
21175;SDS011;10746;50.178;8.186;2023-04-19T11:06:56;7.43;;;4.60;;
21175;SDS011;10746;50.178;8.186;2023-04-19T11:09:28;11.52;;;4.65;;
21175;SDS011;10746;50.178;8.186;2023-04-19T11:11:59;8.23;;;4.63;;
21175;SDS011;10746;50.178;8.186;2023-04-19T11:14:29;6.07;;;4.30;;
21175;SDS011;10746;50.178;8.186;2023-04-19T11:17:02;5.28;;;4.15;;
21175;SDS011;10746;50.178;8.186;2023-04-19T11:19:41;7.90;;;4.53;;
21175;SDS011;10746;50.178;8.186;2023-04-19T11:28:40;6.78;;;4.90;;
21175;SDS011;10746;50.178;8.186;2023-04-19T11:31:06;5.57;;;4.53;;
21175;SDS011;10746;50.178;8.186;2023-04-19T11:33:35;6.38;;;4.60;;
21175;SDS011;10746;50.178;8.186;2023-04-19T11:36:02;6.25;;;4.50;;
21175;SDS011;10746;50.178;8.186;2023-04-19T11:38:36;6.40;;;4.57;;
21175;SDS011;10746;50.178;8.186;2023-04-19T11:41:03;6.47;;;4.28;;
21175;SDS011;10746;50.178;8.186;2023-04-19T11:43:33;9.13;;;4.03;;
21175;SDS011;10746;50.178;8.186;2023-04-19T11:46:03;6.63;;;4.38;;
21175;SDS011;10746;50.178;8.186;2023-04-19T11:48:31;10.57;;;4.85;;
21175;SDS011;10746;50.178;8.186;2023-04-19T11:51:00;11.10;;;4.85;;
21175;SDS011;10746;50.178;8.186;2023-04-19T11:53:28;8.27;;;4.78;;
21175;SDS011;10746;50.178;8.186;2023-04-19T11:56:02;8.90;;;4.85;;
21175;SDS011;10746;50.178;8.186;2023-04-19T11:58:30;8.18;;;4.60;;
21175;SDS011;10746;50.178;8.186;2023-04-19T12:01:04;9.65;;;4.45;;
21175;SDS011;10746;50.178;8.186;2023-04-19T12:03:32;7.50;;;4.57;;
21175;SDS011;10746;50.178;8.186;2023-04-19T12:06:01;7.53;;;3.70;;
21175;SDS011;10746;50.178;8.186;2023-04-19T12:08:33;5.68;;;4.55;;
21175;SDS011;10746;50.178;8.186;2023-04-19T12:11:01;5.55;;;4.00;;
21175;SDS011;10746;50.178;8.186;2023-04-19T12:13:29;9.93;;;4.15;;
21175;SDS011;10746;50.178;8.186;2023-04-19T12:15:57;5.38;;;3.63;;
21175;SDS011;10746;50.178;8.186;2023-04-19T12:18:24;7.75;;;3.45;;
21175;SDS011;10746;50.178;8.186;2023-04-19T12:24:15;7.95;;;3.30;;
21175;SDS011;10746;50.178;8.186;2023-04-19T12:26:51;3.90;;;3.30;;
21175;SDS011;10746;50.178;8.186;2023-04-19T12:29:18;3.90;;;3.05;;
21175;SDS011;10746;50.178;8.186;2023-04-19T12:31:45;3.70;;;3.35;;
21175;SDS011;10746;50.178;8.186;2023-04-19T12:34:12;5.93;;;3.30;;
21175;SDS011;10746;50.178;8.186;2023-04-19T12:36:39;3.78;;;2.85;;
21175;SDS011;10746;50.178;8.186;2023-04-19T12:39:05;6.78;;;2.92;;
21175;SDS011;10746;50.178;8.186;2023-04-19T12:41:33;4.45;;;3.00;;
21175;SDS011;10746;50.178;8.186;2023-04-19T12:44:00;4.53;;;2.38;;
21175;SDS011;10746;50.178;8.186;2023-04-19T12:46:27;11.38;;;2.63;;
21175;SDS011;10746;50.178;8.186;2023-04-19T12:48:54;2.50;;;2.20;;
21175;SDS011;10746;50.178;8.186;2023-04-19T12:51:20;5.05;;;3.17;;
21175;SDS011;10746;50.178;8.186;2023-04-19T12:53:47;3.63;;;2.50;;
21175;SDS011;10746;50.178;8.186;2023-04-19T12:56:14;9.05;;;2.97;;
21175;SDS011;10746;50.178;8.186;2023-04-19T12:58:43;3.53;;;2.50;;
21175;SDS011;10746;50.178;8.186;2023-04-19T13:01:10;4.63;;;2.75;;
21175;SDS011;10746;50.178;8.186;2023-04-19T13:03:37;6.20;;;2.60;;
21175;SDS011;10746;50.178;8.186;2023-04-19T13:06:03;3.83;;;2.08;;
21175;SDS011;10746;50.178;8.186;2023-04-19T13:08:30;2.63;;;2.33;;
21175;SDS011;10746;50.178;8.186;2023-04-19T13:10:58;2.40;;;2.20;;
21175;SDS011;10746;50.178;8.186;2023-04-19T13:13:24;3.90;;;2.20;;
21175;SDS011;10746;50.178;8.186;2023-04-19T13:15:52;6.22;;;2.20;;
21175;SDS011;10746;50.178;8.186;2023-04-19T13:18:19;3.00;;;2.38;;
21175;SDS011;10746;50.178;8.186;2023-04-19T13:20:47;2.42;;;2.22;;
21175;SDS011;10746;50.178;8.186;2023-04-19T13:26:45;2.80;;;2.30;;
21175;SDS011;10746;50.178;8.186;2023-04-19T13:29:12;3.30;;;2.30;;
21175;SDS011;10746;50.178;8.186;2023-04-19T13:31:40;2.40;;;2.22;;
21175;SDS011;10746;50.178;8.186;2023-04-19T13:34:07;2.28;;;2.00;;
21175;SDS011;10746;50.178;8.186;2023-04-19T13:36:34;5.00;;;2.20;;
21175;SDS011;10746;50.178;8.186;2023-04-19T13:39:01;4.68;;;2.15;;
21175;SDS011;10746;50.178;8.186;2023-04-19T13:41:28;6.45;;;1.92;;
21175;SDS011;10746;50.178;8.186;2023-04-19T13:43:55;3.25;;;1.80;;
21175;SDS011;10746;50.178;8.186;2023-04-19T13:46:21;2.47;;;1.90;;
21175;SDS011;10746;50.178;8.186;2023-04-19T13:48:50;3.97;;;2.17;;
21175;SDS011;10746;50.178;8.186;2023-04-19T13:51:17;4.13;;;2.08;;
21175;SDS011;10746;50.178;8.186;2023-04-19T13:53:43;7.30;;;2.00;;
21175;SDS011;10746;50.178;8.186;2023-04-19T13:56:10;6.70;;;2.35;;
21175;SDS011;10746;50.178;8.186;2023-04-19T13:58:37;3.85;;;2.05;;
21175;SDS011;10746;50.178;8.186;2023-04-19T14:01:03;2.38;;;2.10;;
21175;SDS011;10746;50.178;8.186;2023-04-19T14:03:30;3.03;;;2.47;;
21175;SDS011;10746;50.178;8.186;2023-04-19T14:05:58;3.83;;;2.30;;
21175;SDS011;10746;50.178;8.186;2023-04-19T14:08:25;4.38;;;2.00;;
21175;SDS011;10746;50.178;8.186;2023-04-19T14:10:52;4.07;;;2.75;;
21175;SDS011;10746;50.178;8.186;2023-04-19T14:13:19;4.60;;;2.13;;
21175;SDS011;10746;50.178;8.186;2023-04-19T14:15:45;2.80;;;1.70;;
21175;SDS011;10746;50.178;8.186;2023-04-19T14:18:12;3.53;;;1.90;;
21175;SDS011;10746;50.178;8.186;2023-04-19T14:27:25;2.35;;;1.90;;
21175;SDS011;10746;50.178;8.186;2023-04-19T14:29:52;2.38;;;1.70;;
21175;SDS011;10746;50.178;8.186;2023-04-19T14:32:18;7.68;;;2.10;;
21175;SDS011;10746;50.178;8.186;2023-04-19T14:34:45;4.38;;;2.50;;
21175;SDS011;10746;50.178;8.186;2023-04-19T14:37:12;2.97;;;1.85;;
21175;SDS011;10746;50.178;8.186;2023-04-19T14:39:39;2.15;;;2.00;;
21175;SDS011;10746;50.178;8.186;2023-04-19T14:42:05;2.10;;;1.90;;
21175;SDS011;10746;50.178;8.186;2023-04-19T14:44:33;4.05;;;1.90;;
21175;SDS011;10746;50.178;8.186;2023-04-19T14:47:00;4.45;;;2.17;;
21175;SDS011;10746;50.178;8.186;2023-04-19T14:49:27;1.83;;;1.73;;
21175;SDS011;10746;50.178;8.186;2023-04-19T14:51:53;3.80;;;1.88;;
21175;SDS011;10746;50.178;8.186;2023-04-19T14:54:20;5.93;;;2.42;;
21175;SDS011;10746;50.178;8.186;2023-04-19T14:56:47;2.10;;;1.90;;
21175;SDS011;10746;50.178;8.186;2023-04-19T14:59:14;3.35;;;1.85;;
21175;SDS011;10746;50.178;8.186;2023-04-19T15:01:42;2.78;;;2.00;;
21175;SDS011;10746;50.178;8.186;2023-04-19T15:04:09;4.13;;;1.92;;
21175;SDS011;10746;50.178;8.186;2023-04-19T15:06:36;2.25;;;2.08;;
21175;SDS011;10746;50.178;8.186;2023-04-19T15:09:02;6.68;;;2.20;;
21175;SDS011;10746;50.178;8.186;2023-04-19T15:11:29;4.78;;;2.40;;
21175;SDS011;10746;50.178;8.186;2023-04-19T15:13:56;4.15;;;2.50;;
21175;SDS011;10746;50.178;8.186;2023-04-19T15:16:22;2.13;;;1.92;;
21175;SDS011;10746;50.178;8.186;2023-04-19T15:18:51;8.00;;;2.10;;
21175;SDS011;10746;50.178;8.186;2023-04-19T15:21:18;5.15;;;2.17;;
21175;SDS011;10746;50.178;8.186;2023-04-19T15:23:46;2.20;;;1.90;;
21175;SDS011;10746;50.178;8.186;2023-04-19T15:32:57;2.10;;;2.00;;
21175;SDS011;10746;50.178;8.186;2023-04-19T15:35:25;2.45;;;2.10;;
21175;SDS011;10746;50.178;8.186;2023-04-19T15:37:52;3.53;;;2.40;;
21175;SDS011;10746;50.178;8.186;2023-04-19T15:40:19;2.88;;;2.20;;
21175;SDS011;10746;50.178;8.186;2023-04-19T15:42:47;3.88;;;2.53;;
21175;SDS011;10746;50.178;8.186;2023-04-19T15:45:13;2.53;;;2.22;;
21175;SDS011;10746;50.178;8.186;2023-04-19T15:47:40;2.78;;;2.53;;
21175;SDS011;10746;50.178;8.186;2023-04-19T15:50:07;2.47;;;2.28;;
21175;SDS011;10746;50.178;8.186;2023-04-19T15:52:36;2.20;;;2.05;;
21175;SDS011;10746;50.178;8.186;2023-04-19T15:55:03;5.30;;;2.10;;
21175;SDS011;10746;50.178;8.186;2023-04-19T15:57:30;2.70;;;2.47;;
21175;SDS011;10746;50.178;8.186;2023-04-19T15:59:57;4.55;;;2.40;;
21175;SDS011;10746;50.178;8.186;2023-04-19T16:02:23;3.33;;;2.42;;
21175;SDS011;10746;50.178;8.186;2023-04-19T16:04:50;5.60;;;2.65;;
21175;SDS011;10746;50.178;8.186;2023-04-19T16:07:17;3.00;;;2.53;;
21175;SDS011;10746;50.178;8.186;2023-04-19T16:09:45;5.90;;;2.50;;
21175;SDS011;10746;50.178;8.186;2023-04-19T16:12:12;4.18;;;2.85;;
21175;SDS011;10746;50.178;8.186;2023-04-19T16:14:38;2.47;;;2.28;;
21175;SDS011;10746;50.178;8.186;2023-04-19T16:17:05;2.85;;;2.38;;
21175;SDS011;10746;50.178;8.186;2023-04-19T16:19:32;3.88;;;2.70;;
21175;SDS011;10746;50.178;8.186;2023-04-19T16:21:58;2.80;;;2.60;;
21175;SDS011;10746;50.178;8.186;2023-04-19T16:24:26;5.75;;;3.08;;
21175;SDS011;10746;50.178;8.186;2023-04-19T16:26:54;3.95;;;3.15;;
21175;SDS011;10746;50.178;8.186;2023-04-19T16:29:21;2.90;;;2.63;;
21175;SDS011;10746;50.178;8.186;2023-04-19T16:35:26;3.72;;;2.47;;
21175;SDS011;10746;50.178;8.186;2023-04-19T16:37:52;7.47;;;2.50;;
21175;SDS011;10746;50.178;8.186;2023-04-19T16:40:20;3.50;;;2.65;;
21175;SDS011;10746;50.178;8.186;2023-04-19T16:42:49;3.55;;;2.58;;
21175;SDS011;10746;50.178;8.186;2023-04-19T16:45:15;2.95;;;2.67;;
21175;SDS011;10746;50.178;8.186;2023-04-19T16:47:42;2.63;;;2.42;;
21175;SDS011;10746;50.178;8.186;2023-04-19T16:50:09;7.95;;;2.72;;
21175;SDS011;10746;50.178;8.186;2023-04-19T16:52:37;6.70;;;2.95;;
21175;SDS011;10746;50.178;8.186;2023-04-19T16:55:04;3.35;;;2.45;;
21175;SDS011;10746;50.178;8.186;2023-04-19T16:57:31;3.60;;;2.72;;
21175;SDS011;10746;50.178;8.186;2023-04-19T16:59:59;9.73;;;2.55;;
21175;SDS011;10746;50.178;8.186;2023-04-19T17:02:26;4.40;;;2.90;;
21175;SDS011;10746;50.178;8.186;2023-04-19T17:04:53;2.60;;;2.40;;
21175;SDS011;10746;50.178;8.186;2023-04-19T17:07:20;5.38;;;2.30;;
21175;SDS011;10746;50.178;8.186;2023-04-19T17:09:47;3.60;;;2.50;;
21175;SDS011;10746;50.178;8.186;2023-04-19T17:12:14;4.60;;;2.50;;
21175;SDS011;10746;50.178;8.186;2023-04-19T17:14:41;3.08;;;2.78;;
21175;SDS011;10746;50.178;8.186;2023-04-19T17:17:09;2.55;;;2.35;;
21175;SDS011;10746;50.178;8.186;2023-04-19T17:19:35;4.00;;;2.63;;
21175;SDS011;10746;50.178;8.186;2023-04-19T17:22:02;6.00;;;2.50;;
21175;SDS011;10746;50.178;8.186;2023-04-19T17:24:30;5.00;;;2.60;;
21175;SDS011;10746;50.178;8.186;2023-04-19T17:26:57;3.20;;;2.90;;
21175;SDS011;10746;50.178;8.186;2023-04-19T17:29:24;3.70;;;2.92;;
21175;SDS011;10746;50.178;8.186;2023-04-19T17:31:50;2.60;;;2.30;;
21175;SDS011;10746;50.178;8.186;2023-04-19T17:34:18;2.53;;;2.33;;
21175;SDS011;10746;50.178;8.186;2023-04-19T17:40:07;3.33;;;2.53;;
21175;SDS011;10746;50.178;8.186;2023-04-19T17:42:35;7.80;;;2.80;;
21175;SDS011;10746;50.178;8.186;2023-04-19T17:45:02;4.28;;;2.28;;
21175;SDS011;10746;50.178;8.186;2023-04-19T17:47:30;4.95;;;2.40;;
21175;SDS011;10746;50.178;8.186;2023-04-19T17:50:04;3.22;;;2.40;;
21175;SDS011;10746;50.178;8.186;2023-04-19T17:52:32;6.97;;;2.67;;
21175;SDS011;10746;50.178;8.186;2023-04-19T17:54:59;5.23;;;2.70;;
21175;SDS011;10746;50.178;8.186;2023-04-19T17:57:26;4.47;;;2.47;;
21175;SDS011;10746;50.178;8.186;2023-04-19T17:59:53;2.65;;;2.45;;
21175;SDS011;10746;50.178;8.186;2023-04-19T18:02:20;5.93;;;2.70;;
21175;SDS011;10746;50.178;8.186;2023-04-19T18:04:47;3.53;;;2.27;;
21175;SDS011;10746;50.178;8.186;2023-04-19T18:07:15;4.03;;;2.50;;
21175;SDS011;10746;50.178;8.186;2023-04-19T18:09:42;4.72;;;3.05;;
21175;SDS011;10746;50.178;8.186;2023-04-19T18:12:09;5.17;;;2.70;;
21175;SDS011;10746;50.178;8.186;2023-04-19T18:14:36;3.35;;;2.50;;